sensor_id;sensor_type;location;lat;lon;timestamp;temperature;humidity
34472;DHT22;20710;49.976;19.836;2022-08-04T00:02:29;16.93;82.55
34472;DHT22;20710;49.976;19.836;2022-08-04T00:08:55;16.89;83.14
34472;DHT22;20710;49.976;19.836;2022-08-04T00:15:00;16.80;83.23
34472;DHT22;20710;49.976;19.836;2022-08-04T00:21:15;16.72;83.18
34472;DHT22;20710;49.976;19.836;2022-08-04T00:27:18;16.66;83.34
34472;DHT22;20710;49.976;19.836;2022-08-04T00:33:27;16.63;83.32
34472;DHT22;20710;49.976;19.836;2022-08-04T00:39:36;16.63;83.61
34472;DHT22;20710;49.976;19.836;2022-08-04T00:46:11;16.55;84.03
34472;DHT22;20710;49.976;19.836;2022-08-04T00:53:07;16.41;84.06
34472;DHT22;20710;49.976;19.836;2022-08-04T01:12:40;16.13;84.59
34472;DHT22;20710;49.976;19.836;2022-08-04T01:38:01;16.18;83.72
34472;DHT22;20710;49.976;19.836;2022-08-04T01:44:11;16.18;84.25
34472;DHT22;20710;49.976;19.836;2022-08-04T01:50:17;16.11;84.00
34472;DHT22;20710;49.976;19.836;2022-08-04T01:56:27;16.03;84.05
34472;DHT22;20710;49.976;19.836;2022-08-04T02:02:29;15.98;84.23
34472;DHT22;20710;49.976;19.836;2022-08-04T02:15:41;15.80;84.24
34472;DHT22;20710;49.976;19.836;2022-08-04T02:21:54;15.69;84.79
34472;DHT22;20710;49.976;19.836;2022-08-04T02:28:11;15.58;85.13
34472;DHT22;20710;49.976;19.836;2022-08-04T02:34:45;15.47;85.15
34472;DHT22;20710;49.976;19.836;2022-08-04T02:40:48;15.37;85.06
34472;DHT22;20710;49.976;19.836;2022-08-04T02:46:54;15.33;85.30
34472;DHT22;20710;49.976;19.836;2022-08-04T02:53:03;15.20;85.50
34472;DHT22;20710;49.976;19.836;2022-08-04T02:59:10;15.18;85.60
34472;DHT22;20710;49.976;19.836;2022-08-04T03:05:33;15.15;85.66
34472;DHT22;20710;49.976;19.836;2022-08-04T03:46:08;15.13;85.17
34472;DHT22;20710;49.976;19.836;2022-08-04T04:05:34;15.18;85.24
34472;DHT22;20710;49.976;19.836;2022-08-04T04:12:24;15.22;85.31
34472;DHT22;20710;49.976;19.836;2022-08-04T04:32:23;15.58;85.26
34472;DHT22;20710;49.976;19.836;2022-08-04T04:45:48;15.87;84.83
34472;DHT22;20710;49.976;19.836;2022-08-04T04:58:16;16.25;84.56
34472;DHT22;20710;49.976;19.836;2022-08-04T05:17:44;16.79;84.33
34472;DHT22;20710;49.976;19.836;2022-08-04T05:23:48;16.94;84.48
34472;DHT22;20710;49.976;19.836;2022-08-04T05:30:02;17.13;84.87
34472;DHT22;20710;49.976;19.836;2022-08-04T05:36:14;17.38;85.58
34472;DHT22;20710;49.976;19.836;2022-08-04T05:42:15;17.68;86.27
34472;DHT22;20710;49.976;19.836;2022-08-04T05:48:17;18.00;86.57
34472;DHT22;20710;49.976;19.836;2022-08-04T05:54:19;18.26;86.13
34472;DHT22;20710;49.976;19.836;2022-08-04T06:00:27;18.55;85.23
34472;DHT22;20710;49.976;19.836;2022-08-04T06:06:31;18.90;84.66
34472;DHT22;20710;49.976;19.836;2022-08-04T06:12:44;19.23;84.18
34472;DHT22;20710;49.976;19.836;2022-08-04T06:18:48;19.59;84.04
34472;DHT22;20710;49.976;19.836;2022-08-04T06:25:02;19.95;83.28
34472;DHT22;20710;49.976;19.836;2022-08-04T06:31:17;20.35;82.74
34472;DHT22;20710;49.976;19.836;2022-08-04T06:37:25;20.78;82.05
34472;DHT22;20710;49.976;19.836;2022-08-04T06:43:28;21.15;81.18
34472;DHT22;20710;49.976;19.836;2022-08-04T06:49:30;21.46;80.38
34472;DHT22;20710;49.976;19.836;2022-08-04T06:55:33;21.80;79.07
34472;DHT22;20710;49.976;19.836;2022-08-04T07:01:35;22.20;78.61
34472;DHT22;20710;49.976;19.836;2022-08-04T07:07:38;22.66;77.74
34472;DHT22;20710;49.976;19.836;2022-08-04T07:13:44;23.03;76.68
34472;DHT22;20710;49.976;19.836;2022-08-04T07:19:46;23.39;75.48
34472;DHT22;20710;49.976;19.836;2022-08-04T07:25:57;23.73;74.09
34472;DHT22;20710;49.976;19.836;2022-08-04T07:31:59;24.11;70.40
34472;DHT22;20710;49.976;19.836;2022-08-04T07:38:03;24.61;62.78
34472;DHT22;20710;49.976;19.836;2022-08-04T07:44:07;25.20;59.34
34472;DHT22;20710;49.976;19.836;2022-08-04T07:50:13;25.77;60.82
34472;DHT22;20710;49.976;19.836;2022-08-04T07:56:35;26.36;54.80
34472;DHT22;20710;49.976;19.836;2022-08-04T08:02:38;26.75;51.01
34472;DHT22;20710;49.976;19.836;2022-08-04T08:08:45;26.98;48.64
34472;DHT22;20710;49.976;19.836;2022-08-04T08:14:55;26.98;49.54
34472;DHT22;20710;49.976;19.836;2022-08-04T08:21:02;27.07;49.43
34472;DHT22;20710;49.976;19.836;2022-08-04T08:27:20;27.32;48.34
34472;DHT22;20710;49.976;19.836;2022-08-04T08:33:33;27.46;47.45
34472;DHT22;20710;49.976;19.836;2022-08-04T09:00:26;27.85;50.01
34472;DHT22;20710;49.976;19.836;2022-08-04T09:06:46;27.91;51.06
34472;DHT22;20710;49.976;19.836;2022-08-04T09:45:39;29.82;45.29
34472;DHT22;20710;49.976;19.836;2022-08-04T09:52:19;30.13;44.12
34472;DHT22;20710;49.976;19.836;2022-08-04T10:05:12;31.33;44.68
34472;DHT22;20710;49.976;19.836;2022-08-04T10:11:39;31.91;43.19
34472;DHT22;20710;49.976;19.836;2022-08-04T10:30:53;31.85;39.08
34472;DHT22;20710;49.976;19.836;2022-08-04T10:43:50;31.75;37.44
34472;DHT22;20710;49.976;19.836;2022-08-04T10:50:19;31.79;39.07
34472;DHT22;20710;49.976;19.836;2022-08-04T10:56:31;31.79;36.25
34472;DHT22;20710;49.976;19.836;2022-08-04T11:08:50;31.97;38.45
34472;DHT22;20710;49.976;19.836;2022-08-04T11:15:12;32.38;39.46
34472;DHT22;20710;49.976;19.836;2022-08-04T11:21:20;32.82;39.15
34472;DHT22;20710;49.976;19.836;2022-08-04T11:27:54;33.15;38.29
34472;DHT22;20710;49.976;19.836;2022-08-04T11:34:22;33.40;39.17
34472;DHT22;20710;49.976;19.836;2022-08-04T11:40:28;33.50;37.72
34472;DHT22;20710;49.976;19.836;2022-08-04T11:46:46;33.53;38.51
34472;DHT22;20710;49.976;19.836;2022-08-04T11:52:48;33.71;33.79
34472;DHT22;20710;49.976;19.836;2022-08-04T11:58:50;32.92;35.99
34472;DHT22;20710;49.976;19.836;2022-08-04T12:05:08;32.44;37.11
34472;DHT22;20710;49.976;19.836;2022-08-04T12:11:44;31.99;37.69
34472;DHT22;20710;49.976;19.836;2022-08-04T12:18:09;31.44;38.40
34472;DHT22;20710;49.976;19.836;2022-08-04T12:24:25;30.99;39.61
34472;DHT22;20710;49.976;19.836;2022-08-04T12:30:30;30.74;40.70
34472;DHT22;20710;49.976;19.836;2022-08-04T12:36:53;30.54;41.91
34472;DHT22;20710;49.976;19.836;2022-08-04T12:43:17;30.38;40.12
34472;DHT22;20710;49.976;19.836;2022-08-04T12:49:37;29.93;42.34
34472;DHT22;20710;49.976;19.836;2022-08-04T13:02:33;29.36;42.71
34472;DHT22;20710;49.976;19.836;2022-08-04T13:08:44;29.43;40.39
34472;DHT22;20710;49.976;19.836;2022-08-04T13:14:50;29.26;42.04
34472;DHT22;20710;49.976;19.836;2022-08-04T13:21:10;29.13;42.99
34472;DHT22;20710;49.976;19.836;2022-08-04T13:27:14;29.05;43.59
34472;DHT22;20710;49.976;19.836;2022-08-04T13:33:36;28.92;44.61
34472;DHT22;20710;49.976;19.836;2022-08-04T13:39:45;28.96;43.35
34472;DHT22;20710;49.976;19.836;2022-08-04T13:46:03;28.86;42.81
34472;DHT22;20710;49.976;19.836;2022-08-04T13:52:07;28.79;43.88
34472;DHT22;20710;49.976;19.836;2022-08-04T13:58:30;28.64;43.94
34472;DHT22;20710;49.976;19.836;2022-08-04T14:04:40;28.55;44.29
34472;DHT22;20710;49.976;19.836;2022-08-04T14:10:42;28.51;44.38
34472;DHT22;20710;49.976;19.836;2022-08-04T14:23:05;28.34;44.48
34472;DHT22;20710;49.976;19.836;2022-08-04T14:29:15;28.24;44.37
34472;DHT22;20710;49.976;19.836;2022-08-04T14:35:16;28.18;44.35
34472;DHT22;20710;49.976;19.836;2022-08-04T14:41:25;28.13;44.64
34472;DHT22;20710;49.976;19.836;2022-08-04T14:47:42;28.05;45.05
34472;DHT22;20710;49.976;19.836;2022-08-04T14:53:46;27.98;45.68
34472;DHT22;20710;49.976;19.836;2022-08-04T14:59:49;27.89;46.20
34472;DHT22;20710;49.976;19.836;2022-08-04T15:05:52;27.81;46.23
34472;DHT22;20710;49.976;19.836;2022-08-04T15:11:55;27.79;45.87
34472;DHT22;20710;49.976;19.836;2022-08-04T15:17:56;27.74;45.72
34472;DHT22;20710;49.976;19.836;2022-08-04T15:23:58;27.65;45.99
34472;DHT22;20710;49.976;19.836;2022-08-04T15:30:06;27.54;45.29
34472;DHT22;20710;49.976;19.836;2022-08-04T15:36:33;27.51;45.29
34472;DHT22;20710;49.976;19.836;2022-08-04T15:42:48;27.47;45.78
34472;DHT22;20710;49.976;19.836;2022-08-04T15:48:50;27.41;46.06
34472;DHT22;20710;49.976;19.836;2022-08-04T16:01:16;27.17;45.89
34472;DHT22;20710;49.976;19.836;2022-08-04T16:07:18;27.10;46.24
34472;DHT22;20710;49.976;19.836;2022-08-04T16:13:22;27.01;46.27
34472;DHT22;20710;49.976;19.836;2022-08-04T16:19:56;26.92;46.34
34472;DHT22;20710;49.976;19.836;2022-08-04T16:25:56;26.79;46.82
34472;DHT22;20710;49.976;19.836;2022-08-04T16:32:10;26.71;46.36
34472;DHT22;20710;49.976;19.836;2022-08-04T16:38:14;26.58;46.70
34472;DHT22;20710;49.976;19.836;2022-08-04T16:44:31;26.42;46.66
34472;DHT22;20710;49.976;19.836;2022-08-04T16:50:50;26.26;47.07
34472;DHT22;20710;49.976;19.836;2022-08-04T16:56:54;26.09;47.48
34472;DHT22;20710;49.976;19.836;2022-08-04T17:02:55;25.91;48.12
34472;DHT22;20710;49.976;19.836;2022-08-04T17:09:11;25.72;48.52
34472;DHT22;20710;49.976;19.836;2022-08-04T17:15:20;25.51;48.98
34472;DHT22;20710;49.976;19.836;2022-08-04T17:21:29;25.32;49.34
34472;DHT22;20710;49.976;19.836;2022-08-04T17:27:31;25.16;49.77
34472;DHT22;20710;49.976;19.836;2022-08-04T17:33:33;25.05;50.32
34472;DHT22;20710;49.976;19.836;2022-08-04T17:39:34;24.92;50.67
34472;DHT22;20710;49.976;19.836;2022-08-04T17:45:38;24.79;51.22
34472;DHT22;20710;49.976;19.836;2022-08-04T17:51:46;24.67;51.57
34472;DHT22;20710;49.976;19.836;2022-08-04T17:57:47;24.54;52.12
34472;DHT22;20710;49.976;19.836;2022-08-04T18:03:50;24.42;52.55
34472;DHT22;20710;49.976;19.836;2022-08-04T18:09:55;24.23;52.96
34472;DHT22;20710;49.976;19.836;2022-08-04T18:16:04;24.08;53.34
34472;DHT22;20710;49.976;19.836;2022-08-04T18:22:05;23.89;53.68
34472;DHT22;20710;49.976;19.836;2022-08-04T18:28:07;23.71;54.33
34472;DHT22;20710;49.976;19.836;2022-08-04T18:34:09;23.53;54.84
34472;DHT22;20710;49.976;19.836;2022-08-04T18:40:11;23.36;55.20
34472;DHT22;20710;49.976;19.836;2022-08-04T18:46:13;23.25;55.48
34472;DHT22;20710;49.976;19.836;2022-08-04T18:52:14;23.06;55.87
34472;DHT22;20710;49.976;19.836;2022-08-04T18:58:15;22.88;57.63
34472;DHT22;20710;49.976;19.836;2022-08-04T19:04:42;22.67;59.61
34472;DHT22;20710;49.976;19.836;2022-08-04T19:10:43;22.43;59.67
34472;DHT22;20710;49.976;19.836;2022-08-04T19:16:44;22.20;60.78
34472;DHT22;20710;49.976;19.836;2022-08-04T19:22:48;21.92;61.47
34472;DHT22;20710;49.976;19.836;2022-08-04T19:28:51;21.63;62.14
34472;DHT22;20710;49.976;19.836;2022-08-04T19:34:52;21.36;63.52
34472;DHT22;20710;49.976;19.836;2022-08-04T19:40:54;21.08;64.24
34472;DHT22;20710;49.976;19.836;2022-08-04T19:46:57;20.77;65.03
34472;DHT22;20710;49.976;19.836;2022-08-04T19:52:58;20.54;65.52
34472;DHT22;20710;49.976;19.836;2022-08-04T19:59:00;20.35;65.80
34472;DHT22;20710;49.976;19.836;2022-08-04T20:05:01;20.19;66.16
34472;DHT22;20710;49.976;19.836;2022-08-04T20:11:02;20.11;66.69
34472;DHT22;20710;49.976;19.836;2022-08-04T20:17:04;19.97;67.48
34472;DHT22;20710;49.976;19.836;2022-08-04T20:23:05;19.81;68.17
34472;DHT22;20710;49.976;19.836;2022-08-04T20:29:16;19.64;68.78
34472;DHT22;20710;49.976;19.836;2022-08-04T20:35:21;19.48;69.40
34472;DHT22;20710;49.976;19.836;2022-08-04T20:41:39;19.33;70.11
34472;DHT22;20710;49.976;19.836;2022-08-04T20:47:40;19.18;70.47
34472;DHT22;20710;49.976;19.836;2022-08-04T20:53:48;19.05;70.71
34472;DHT22;20710;49.976;19.836;2022-08-04T20:59:49;18.95;71.13
34472;DHT22;20710;49.976;19.836;2022-08-04T21:05:57;18.86;71.10
34472;DHT22;20710;49.976;19.836;2022-08-04T21:11:58;18.81;71.24
34472;DHT22;20710;49.976;19.836;2022-08-04T21:18:00;18.77;71.54
34472;DHT22;20710;49.976;19.836;2022-08-04T21:24:01;18.71;71.85
34472;DHT22;20710;49.976;19.836;2022-08-04T21:30:10;18.62;71.98
34472;DHT22;20710;49.976;19.836;2022-08-04T21:36:25;18.48;72.29
34472;DHT22;20710;49.976;19.836;2022-08-04T21:42:26;18.33;72.72
34472;DHT22;20710;49.976;19.836;2022-08-04T21:48:27;18.26;72.56
34472;DHT22;20710;49.976;19.836;2022-08-04T22:01:32;18.29;72.40
34472;DHT22;20710;49.976;19.836;2022-08-04T22:15:13;18.19;73.11
34472;DHT22;20710;49.976;19.836;2022-08-04T22:21:23;18.11;73.58
34472;DHT22;20710;49.976;19.836;2022-08-04T22:27:26;18.00;73.83
34472;DHT22;20710;49.976;19.836;2022-08-04T22:33:53;17.84;74.46
34472;DHT22;20710;49.976;19.836;2022-08-04T22:39:54;17.72;74.96
34472;DHT22;20710;49.976;19.836;2022-08-04T22:46:27;17.57;75.69
34472;DHT22;20710;49.976;19.836;2022-08-04T22:53:26;17.38;76.27
34472;DHT22;20710;49.976;19.836;2022-08-04T22:59:43;17.18;76.91
34472;DHT22;20710;49.976;19.836;2022-08-04T23:06:08;17.10;77.24
34472;DHT22;20710;49.976;19.836;2022-08-04T23:25:07;16.84;77.71
34472;DHT22;20710;49.976;19.836;2022-08-04T23:31:12;16.74;78.06
34472;DHT22;20710;49.976;19.836;2022-08-04T23:37:37;16.63;78.60
34472;DHT22;20710;49.976;19.836;2022-08-04T23:43:38;16.55;78.83
34472;DHT22;20710;49.976;19.836;2022-08-04T23:49:40;16.46;78.69
34472;DHT22;20710;49.976;19.836;2022-08-04T23:55:41;16.49;78.38
